Benedicta, Maine
Current Conditions -  °F | °C
As of 11:11 PM on Wednesday 26 Nov 2014 (Local Time) from KMLT Reporting Station
Light Snow Light Snow  
Wind Chill: 17°   Ceiling: 1000
Heat Index: 28°   Visibility: 1mi
Dew Point: 26°   Wind: 13mph
Humidity: 92%   Direction: 20°NNE
Pressure: 29.92"   Gusts: 17mph
Location:  45.8°N, 68.41°W
Report Text: KMLT 270411Z AUTO 02011G15KT 1SM -SN BR VV010 M02/M03 A2992 RMK AO2 P0000 T10221033
Loading
Personal Weather Stations






























Interactive Weather Map New forecast layout! Learn more

10-Day Weather Forecast

Advertisements
Track Severe Weather on mobile